sensor_id;sensor_type;location;lat;lon;timestamp;P1;durP1;ratioP1;P2;durP2;ratioP2
52456;SDS011;38369;52.840;7.082;2022-11-30T00:02:02;50.67;;;25.33;;
52456;SDS011;38369;52.840;7.082;2022-11-30T00:04:28;46.58;;;23.83;;
52456;SDS011;38369;52.840;7.082;2022-11-30T00:06:54;51.90;;;25.92;;
52456;SDS011;38369;52.840;7.082;2022-11-30T00:09:22;54.20;;;26.88;;
52456;SDS011;38369;52.840;7.082;2022-11-30T00:11:48;53.13;;;23.95;;
52456;SDS011;38369;52.840;7.082;2022-11-30T00:14:14;47.75;;;25.95;;
52456;SDS011;38369;52.840;7.082;2022-11-30T00:16:40;53.35;;;25.42;;
52456;SDS011;38369;52.840;7.082;2022-11-30T00:19:06;54.72;;;25.85;;
52456;SDS011;38369;52.840;7.082;2022-11-30T00:21:32;47.08;;;24.15;;
52456;SDS011;38369;52.840;7.082;2022-11-30T00:23:58;51.28;;;25.08;;
52456;SDS011;38369;52.840;7.082;2022-11-30T00:26:24;52.88;;;26.05;;
52456;SDS011;38369;52.840;7.082;2022-11-30T00:28:50;49.25;;;25.08;;
52456;SDS011;38369;52.840;7.082;2022-11-30T00:31:16;51.38;;;25.63;;
52456;SDS011;38369;52.840;7.082;2022-11-30T00:33:43;46.83;;;23.30;;
52456;SDS011;38369;52.840;7.082;2022-11-30T00:36:11;52.25;;;25.92;;
52456;SDS011;38369;52.840;7.082;2022-11-30T00:38:38;49.92;;;25.00;;
52456;SDS011;38369;52.840;7.082;2022-11-30T00:41:04;51.65;;;24.98;;
52456;SDS011;38369;52.840;7.082;2022-11-30T00:43:30;42.97;;;23.25;;
52456;SDS011;38369;52.840;7.082;2022-11-30T00:45:56;46.55;;;22.33;;
52456;SDS011;38369;52.840;7.082;2022-11-30T00:48:23;49.47;;;24.45;;
52456;SDS011;38369;52.840;7.082;2022-11-30T00:50:49;46.60;;;24.13;;
52456;SDS011;38369;52.840;7.082;2022-11-30T00:53:16;51.55;;;27.33;;
52456;SDS011;38369;52.840;7.082;2022-11-30T00:55:42;56.50;;;28.02;;
52456;SDS011;38369;52.840;7.082;2022-11-30T00:58:08;53.92;;;26.73;;
52456;SDS011;38369;52.840;7.082;2022-11-30T01:00:34;53.08;;;27.35;;
52456;SDS011;38369;52.840;7.082;2022-11-30T01:03:00;54.28;;;28.85;;
52456;SDS011;38369;52.840;7.082;2022-11-30T01:05:27;53.60;;;26.15;;
52456;SDS011;38369;52.840;7.082;2022-11-30T01:07:53;48.67;;;25.73;;
52456;SDS011;38369;52.840;7.082;2022-11-30T01:10:19;49.65;;;25.98;;
52456;SDS011;38369;52.840;7.082;2022-11-30T01:12:47;49.67;;;24.42;;
52456;SDS011;38369;52.840;7.082;2022-11-30T01:15:13;43.80;;;23.40;;
52456;SDS011;38369;52.840;7.082;2022-11-30T01:17:39;45.53;;;25.08;;
52456;SDS011;38369;52.840;7.082;2022-11-30T01:20:05;45.70;;;23.80;;
52456;SDS011;38369;52.840;7.082;2022-11-30T01:22:33;45.05;;;24.50;;
52456;SDS011;38369;52.840;7.082;2022-11-30T01:24:59;50.13;;;23.83;;
52456;SDS011;38369;52.840;7.082;2022-11-30T01:27:25;46.05;;;24.05;;
52456;SDS011;38369;52.840;7.082;2022-11-30T01:29:51;44.20;;;23.88;;
52456;SDS011;38369;52.840;7.082;2022-11-30T01:32:17;44.70;;;23.70;;
52456;SDS011;38369;52.840;7.082;2022-11-30T01:34:43;39.35;;;21.23;;
52456;SDS011;38369;52.840;7.082;2022-11-30T01:37:09;44.30;;;24.30;;
52456;SDS011;38369;52.840;7.082;2022-11-30T01:39:35;44.03;;;23.73;;
52456;SDS011;38369;52.840;7.082;2022-11-30T01:42:01;35.67;;;20.40;;
52456;SDS011;38369;52.840;7.082;2022-11-30T01:47:03;41.83;;;22.73;;
52456;SDS011;38369;52.840;7.082;2022-11-30T01:49:32;43.63;;;23.77;;
52456;SDS011;38369;52.840;7.082;2022-11-30T01:52:03;40.80;;;21.63;;
52456;SDS011;38369;52.840;7.082;2022-11-30T01:54:31;34.75;;;21.88;;
52456;SDS011;38369;52.840;7.082;2022-11-30T01:56:59;39.22;;;23.02;;
52456;SDS011;38369;52.840;7.082;2022-11-30T01:59:26;35.25;;;21.85;;
52456;SDS011;38369;52.840;7.082;2022-11-30T02:01:53;38.25;;;21.70;;
52456;SDS011;38369;52.840;7.082;2022-11-30T02:06:46;41.38;;;22.17;;
52456;SDS011;38369;52.840;7.082;2022-11-30T02:09:12;38.00;;;21.58;;
52456;SDS011;38369;52.840;7.082;2022-11-30T02:11:39;41.78;;;22.92;;
52456;SDS011;38369;52.840;7.082;2022-11-30T02:29:46;37.22;;;21.55;;
52456;SDS011;38369;52.840;7.082;2022-11-30T02:32:16;32.15;;;20.75;;
52456;SDS011;38369;52.840;7.082;2022-11-30T02:34:44;34.65;;;21.67;;
52456;SDS011;38369;52.840;7.082;2022-11-30T02:37:11;31.92;;;19.02;;
52456;SDS011;38369;52.840;7.082;2022-11-30T02:39:38;35.03;;;19.80;;
52456;SDS011;38369;52.840;7.082;2022-11-30T02:42:11;32.65;;;20.23;;
52456;SDS011;38369;52.840;7.082;2022-11-30T02:44:38;33.60;;;19.73;;
52456;SDS011;38369;52.840;7.082;2022-11-30T02:47:08;32.10;;;19.80;;
52456;SDS011;38369;52.840;7.082;2022-11-30T02:49:47;32.67;;;19.10;;
52456;SDS011;38369;52.840;7.082;2022-11-30T02:52:14;27.50;;;17.15;;
52456;SDS011;38369;52.840;7.082;2022-11-30T02:54:41;26.77;;;17.52;;
52456;SDS011;38369;52.840;7.082;2022-11-30T02:57:07;33.25;;;19.08;;
52456;SDS011;38369;52.840;7.082;2022-11-30T02:59:33;30.83;;;18.35;;
52456;SDS011;38369;52.840;7.082;2022-11-30T03:01:59;29.00;;;18.90;;
52456;SDS011;38369;52.840;7.082;2022-11-30T03:04:25;28.20;;;18.35;;
52456;SDS011;38369;52.840;7.082;2022-11-30T03:06:51;31.65;;;18.88;;
52456;SDS011;38369;52.840;7.082;2022-11-30T03:09:17;29.67;;;18.85;;
52456;SDS011;38369;52.840;7.082;2022-11-30T03:11:43;28.90;;;19.73;;
52456;SDS011;38369;52.840;7.082;2022-11-30T03:14:09;30.60;;;18.92;;
52456;SDS011;38369;52.840;7.082;2022-11-30T03:16:35;30.00;;;17.73;;
52456;SDS011;38369;52.840;7.082;2022-11-30T03:19:02;32.45;;;19.73;;
52456;SDS011;38369;52.840;7.082;2022-11-30T03:21:28;27.92;;;17.63;;
52456;SDS011;38369;52.840;7.082;2022-11-30T03:23:54;29.88;;;17.92;;
52456;SDS011;38369;52.840;7.082;2022-11-30T03:26:20;30.60;;;19.40;;
52456;SDS011;38369;52.840;7.082;2022-11-30T03:28:46;26.45;;;17.52;;
52456;SDS011;38369;52.840;7.082;2022-11-30T03:31:12;33.50;;;20.33;;
52456;SDS011;38369;52.840;7.082;2022-11-30T03:33:42;30.90;;;18.95;;
52456;SDS011;38369;52.840;7.082;2022-11-30T03:36:09;32.35;;;19.92;;
52456;SDS011;38369;52.840;7.082;2022-11-30T03:38:35;33.10;;;19.95;;
52456;SDS011;38369;52.840;7.082;2022-11-30T03:41:02;31.27;;;18.92;;
52456;SDS011;38369;52.840;7.082;2022-11-30T03:43:28;35.72;;;21.13;;
52456;SDS011;38369;52.840;7.082;2022-11-30T03:45:54;34.85;;;20.33;;
52456;SDS011;38369;52.840;7.082;2022-11-30T03:48:21;33.35;;;19.35;;
52456;SDS011;38369;52.840;7.082;2022-11-30T03:50:47;34.33;;;20.40;;
52456;SDS011;38369;52.840;7.082;2022-11-30T03:53:18;33.92;;;19.90;;
52456;SDS011;38369;52.840;7.082;2022-11-30T03:55:44;36.53;;;19.70;;
52456;SDS011;38369;52.840;7.082;2022-11-30T03:58:11;32.45;;;19.77;;
52456;SDS011;38369;52.840;7.082;2022-11-30T04:00:37;39.47;;;21.00;;
52456;SDS011;38369;52.840;7.082;2022-11-30T04:03:03;33.47;;;20.10;;
52456;SDS011;38369;52.840;7.082;2022-11-30T04:05:30;35.20;;;20.02;;
52456;SDS011;38369;52.840;7.082;2022-11-30T04:07:56;38.72;;;21.48;;
52456;SDS011;38369;52.840;7.082;2022-11-30T04:10:22;32.75;;;20.05;;
52456;SDS011;38369;52.840;7.082;2022-11-30T04:12:48;38.20;;;21.15;;
52456;SDS011;38369;52.840;7.082;2022-11-30T04:15:14;33.88;;;19.73;;
52456;SDS011;38369;52.840;7.082;2022-11-30T04:17:40;36.13;;;19.60;;
52456;SDS011;38369;52.840;7.082;2022-11-30T04:20:06;34.35;;;20.80;;
52456;SDS011;38369;52.840;7.082;2022-11-30T04:22:33;37.92;;;21.23;;
52456;SDS011;38369;52.840;7.082;2022-11-30T04:24:59;32.42;;;19.60;;
52456;SDS011;38369;52.840;7.082;2022-11-30T04:27:26;37.53;;;20.30;;
52456;SDS011;38369;52.840;7.082;2022-11-30T04:29:52;39.92;;;21.88;;
52456;SDS011;38369;52.840;7.082;2022-11-30T04:32:19;35.78;;;20.95;;
52456;SDS011;38369;52.840;7.082;2022-11-30T04:34:45;38.67;;;21.08;;
52456;SDS011;38369;52.840;7.082;2022-11-30T04:37:11;39.25;;;20.95;;
52456;SDS011;38369;52.840;7.082;2022-11-30T04:39:37;36.67;;;21.25;;
52456;SDS011;38369;52.840;7.082;2022-11-30T04:42:03;35.38;;;20.33;;
52456;SDS011;38369;52.840;7.082;2022-11-30T04:44:29;42.47;;;23.52;;
52456;SDS011;38369;52.840;7.082;2022-11-30T04:46:55;40.67;;;23.27;;
52456;SDS011;38369;52.840;7.082;2022-11-30T04:49:21;45.60;;;22.15;;
52456;SDS011;38369;52.840;7.082;2022-11-30T04:51:47;44.03;;;21.77;;
52456;SDS011;38369;52.840;7.082;2022-11-30T04:54:13;47.45;;;22.95;;
52456;SDS011;38369;52.840;7.082;2022-11-30T04:56:39;44.88;;;23.70;;
52456;SDS011;38369;52.840;7.082;2022-11-30T04:59:05;43.80;;;21.98;;
52456;SDS011;38369;52.840;7.082;2022-11-30T05:01:31;42.33;;;23.10;;
52456;SDS011;38369;52.840;7.082;2022-11-30T05:03:57;50.20;;;24.85;;
52456;SDS011;38369;52.840;7.082;2022-11-30T05:06:24;45.83;;;25.67;;
52456;SDS011;38369;52.840;7.082;2022-11-30T05:08:50;50.33;;;24.50;;
52456;SDS011;38369;52.840;7.082;2022-11-30T05:11:16;46.70;;;24.08;;
52456;SDS011;38369;52.840;7.082;2022-11-30T05:13:42;47.50;;;24.50;;
52456;SDS011;38369;52.840;7.082;2022-11-30T05:16:08;45.85;;;23.92;;
52456;SDS011;38369;52.840;7.082;2022-11-30T05:18:34;48.08;;;22.98;;
52456;SDS011;38369;52.840;7.082;2022-11-30T05:21:01;48.83;;;26.33;;
52456;SDS011;38369;52.840;7.082;2022-11-30T05:23:27;45.40;;;25.73;;
52456;SDS011;38369;52.840;7.082;2022-11-30T05:25:53;52.42;;;25.98;;
52456;SDS011;38369;52.840;7.082;2022-11-30T05:28:19;48.83;;;26.38;;
52456;SDS011;38369;52.840;7.082;2022-11-30T05:30:45;51.35;;;26.25;;
52456;SDS011;38369;52.840;7.082;2022-11-30T05:33:11;43.78;;;25.00;;
52456;SDS011;38369;52.840;7.082;2022-11-30T05:35:37;44.30;;;24.73;;
52456;SDS011;38369;52.840;7.082;2022-11-30T05:38:03;50.88;;;24.48;;
52456;SDS011;38369;52.840;7.082;2022-11-30T05:40:29;45.28;;;25.15;;
52456;SDS011;38369;52.840;7.082;2022-11-30T05:42:57;46.70;;;26.67;;
52456;SDS011;38369;52.840;7.082;2022-11-30T05:45:23;47.08;;;24.83;;
52456;SDS011;38369;52.840;7.082;2022-11-30T05:47:49;44.15;;;23.02;;
52456;SDS011;38369;52.840;7.082;2022-11-30T05:50:16;45.53;;;24.75;;
52456;SDS011;38369;52.840;7.082;2022-11-30T05:52:42;46.75;;;23.98;;
52456;SDS011;38369;52.840;7.082;2022-11-30T05:55:08;41.55;;;22.48;;
52456;SDS011;38369;52.840;7.082;2022-11-30T05:57:35;48.15;;;24.02;;
52456;SDS011;38369;52.840;7.082;2022-11-30T06:00:02;42.92;;;23.58;;
52456;SDS011;38369;52.840;7.082;2022-11-30T06:02:28;46.30;;;23.42;;
52456;SDS011;38369;52.840;7.082;2022-11-30T06:04:55;44.00;;;22.83;;
52456;SDS011;38369;52.840;7.082;2022-11-30T06:07:21;41.50;;;23.20;;
52456;SDS011;38369;52.840;7.082;2022-11-30T06:09:47;39.00;;;21.25;;
52456;SDS011;38369;52.840;7.082;2022-11-30T06:12:13;37.05;;;21.40;;
52456;SDS011;38369;52.840;7.082;2022-11-30T06:14:39;37.75;;;21.30;;
52456;SDS011;38369;52.840;7.082;2022-11-30T06:17:05;34.33;;;20.30;;
52456;SDS011;38369;52.840;7.082;2022-11-30T06:19:31;40.28;;;22.50;;
52456;SDS011;38369;52.840;7.082;2022-11-30T06:21:57;41.92;;;22.05;;
52456;SDS011;38369;52.840;7.082;2022-11-30T06:24:23;35.45;;;19.08;;
52456;SDS011;38369;52.840;7.082;2022-11-30T06:26:49;35.65;;;19.85;;
52456;SDS011;38369;52.840;7.082;2022-11-30T06:29:15;30.25;;;19.30;;
52456;SDS011;38369;52.840;7.082;2022-11-30T06:31:41;34.88;;;19.45;;
52456;SDS011;38369;52.840;7.082;2022-11-30T06:34:07;35.78;;;18.65;;
52456;SDS011;38369;52.840;7.082;2022-11-30T06:36:33;30.88;;;18.77;;
52456;SDS011;38369;52.840;7.082;2022-11-30T06:38:59;32.13;;;17.60;;
52456;SDS011;38369;52.840;7.082;2022-11-30T06:41:25;30.70;;;18.63;;
52456;SDS011;38369;52.840;7.082;2022-11-30T06:43:51;27.92;;;17.48;;
52456;SDS011;38369;52.840;7.082;2022-11-30T06:46:17;29.35;;;17.67;;
52456;SDS011;38369;52.840;7.082;2022-11-30T06:48:46;31.30;;;18.05;;
52456;SDS011;38369;52.840;7.082;2022-11-30T06:51:12;31.20;;;18.00;;
52456;SDS011;38369;52.840;7.082;2022-11-30T06:53:38;31.92;;;17.67;;
52456;SDS011;38369;52.840;7.082;2022-11-30T06:56:07;30.92;;;18.73;;
52456;SDS011;38369;52.840;7.082;2022-11-30T06:58:33;31.48;;;19.10;;
52456;SDS011;38369;52.840;7.082;2022-11-30T07:01:00;31.50;;;19.27;;
52456;SDS011;38369;52.840;7.082;2022-11-30T07:03:26;25.92;;;15.25;;
52456;SDS011;38369;52.840;7.082;2022-11-30T07:05:52;22.77;;;15.65;;
52456;SDS011;38369;52.840;7.082;2022-11-30T07:08:18;29.25;;;17.77;;
52456;SDS011;38369;52.840;7.082;2022-11-30T07:10:45;24.02;;;16.15;;
52456;SDS011;38369;52.840;7.082;2022-11-30T07:13:12;24.42;;;15.90;;
52456;SDS011;38369;52.840;7.082;2022-11-30T07:15:38;22.75;;;15.35;;
52456;SDS011;38369;52.840;7.082;2022-11-30T07:18:04;26.55;;;15.93;;
52456;SDS011;38369;52.840;7.082;2022-11-30T07:20:31;25.15;;;15.95;;
52456;SDS011;38369;52.840;7.082;2022-11-30T07:22:57;29.83;;;16.10;;
52456;SDS011;38369;52.840;7.082;2022-11-30T07:25:43;29.55;;;16.90;;
52456;SDS011;38369;52.840;7.082;2022-11-30T07:28:27;23.27;;;14.43;;
52456;SDS011;38369;52.840;7.082;2022-11-30T07:30:53;28.33;;;15.93;;
52456;SDS011;38369;52.840;7.082;2022-11-30T07:33:19;28.00;;;16.63;;
52456;SDS011;38369;52.840;7.082;2022-11-30T07:35:45;23.45;;;15.55;;
52456;SDS011;38369;52.840;7.082;2022-11-30T07:38:11;30.23;;;16.55;;
52456;SDS011;38369;52.840;7.082;2022-11-30T07:40:37;25.95;;;15.80;;
52456;SDS011;38369;52.840;7.082;2022-11-30T07:43:03;27.17;;;15.77;;
52456;SDS011;38369;52.840;7.082;2022-11-30T07:45:29;26.85;;;16.00;;
52456;SDS011;38369;52.840;7.082;2022-11-30T07:47:57;26.70;;;17.48;;
52456;SDS011;38369;52.840;7.082;2022-11-30T07:50:23;28.08;;;15.65;;
52456;SDS011;38369;52.840;7.082;2022-11-30T07:52:49;24.60;;;15.68;;
52456;SDS011;38369;52.840;7.082;2022-11-30T07:55:15;25.27;;;16.38;;
52456;SDS011;38369;52.840;7.082;2022-11-30T07:57:43;24.27;;;16.83;;
52456;SDS011;38369;52.840;7.082;2022-11-30T08:00:10;22.48;;;15.88;;
52456;SDS011;38369;52.840;7.082;2022-11-30T08:02:36;25.80;;;16.33;;
52456;SDS011;38369;52.840;7.082;2022-11-30T08:05:02;25.63;;;16.33;;
52456;SDS011;38369;52.840;7.082;2022-11-30T08:07:28;30.10;;;17.58;;
52456;SDS011;38369;52.840;7.082;2022-11-30T08:09:54;25.33;;;16.35;;
52456;SDS011;38369;52.840;7.082;2022-11-30T08:12:20;27.08;;;15.20;;
52456;SDS011;38369;52.840;7.082;2022-11-30T08:14:46;25.63;;;16.13;;
52456;SDS011;38369;52.840;7.082;2022-11-30T08:17:13;26.25;;;15.20;;
52456;SDS011;38369;52.840;7.082;2022-11-30T08:19:39;27.58;;;15.70;;
52456;SDS011;38369;52.840;7.082;2022-11-30T08:22:05;28.27;;;16.70;;
52456;SDS011;38369;52.840;7.082;2022-11-30T08:24:31;25.65;;;14.65;;
52456;SDS011;38369;52.840;7.082;2022-11-30T08:26:57;23.27;;;15.60;;
52456;SDS011;38369;52.840;7.082;2022-11-30T08:29:23;27.42;;;16.65;;
52456;SDS011;38369;52.840;7.082;2022-11-30T08:31:49;24.05;;;15.82;;
52456;SDS011;38369;52.840;7.082;2022-11-30T08:34:15;23.92;;;15.23;;
52456;SDS011;38369;52.840;7.082;2022-11-30T08:36:41;27.05;;;17.15;;
52456;SDS011;38369;52.840;7.082;2022-11-30T08:39:10;26.23;;;15.55;;
52456;SDS011;38369;52.840;7.082;2022-11-30T08:41:36;27.05;;;16.88;;
52456;SDS011;38369;52.840;7.082;2022-11-30T08:44:03;25.95;;;17.17;;
52456;SDS011;38369;52.840;7.082;2022-11-30T08:46:30;23.50;;;16.45;;
52456;SDS011;38369;52.840;7.082;2022-11-30T08:48:56;24.50;;;16.17;;
52456;SDS011;38369;52.840;7.082;2022-11-30T08:51:22;24.02;;;16.33;;
52456;SDS011;38369;52.840;7.082;2022-11-30T08:53:48;30.13;;;17.98;;
52456;SDS011;38369;52.840;7.082;2022-11-30T08:56:19;24.92;;;16.50;;
52456;SDS011;38369;52.840;7.082;2022-11-30T08:58:45;26.55;;;17.45;;
52456;SDS011;38369;52.840;7.082;2022-11-30T09:01:13;22.65;;;15.63;;
52456;SDS011;38369;52.840;7.082;2022-11-30T09:03:40;27.00;;;16.00;;
52456;SDS011;38369;52.840;7.082;2022-11-30T09:08:37;26.40;;;16.15;;
52456;SDS011;38369;52.840;7.082;2022-11-30T09:11:07;28.00;;;18.00;;
52456;SDS011;38369;52.840;7.082;2022-11-30T09:13:33;29.60;;;18.00;;
52456;SDS011;38369;52.840;7.082;2022-11-30T09:15:59;27.70;;;17.88;;
52456;SDS011;38369;52.840;7.082;2022-11-30T09:18:25;27.83;;;18.35;;
52456;SDS011;38369;52.840;7.082;2022-11-30T09:20:51;27.67;;;17.90;;
52456;SDS011;38369;52.840;7.082;2022-11-30T09:23:18;30.30;;;17.75;;
52456;SDS011;38369;52.840;7.082;2022-11-30T09:25:45;36.85;;;20.35;;
52456;SDS011;38369;52.840;7.082;2022-11-30T09:28:14;29.23;;;18.50;;
52456;SDS011;38369;52.840;7.082;2022-11-30T09:30:40;33.70;;;18.98;;
52456;SDS011;38369;52.840;7.082;2022-11-30T09:33:06;33.92;;;19.38;;
52456;SDS011;38369;52.840;7.082;2022-11-30T09:35:32;36.03;;;20.45;;
52456;SDS011;38369;52.840;7.082;2022-11-30T09:37:58;36.47;;;22.00;;
52456;SDS011;38369;52.840;7.082;2022-11-30T09:40:24;33.90;;;19.73;;
52456;SDS011;38369;52.840;7.082;2022-11-30T09:43:00;32.08;;;18.67;;
52456;SDS011;38369;52.840;7.082;2022-11-30T09:45:29;30.08;;;18.10;;
52456;SDS011;38369;52.840;7.082;2022-11-30T09:50:42;30.23;;;18.88;;
52456;SDS011;38369;52.840;7.082;2022-11-30T09:53:10;28.70;;;17.67;;
52456;SDS011;38369;52.840;7.082;2022-11-30T09:55:41;28.05;;;18.08;;
52456;SDS011;38369;52.840;7.082;2022-11-30T09:58:10;27.67;;;18.40;;
52456;SDS011;38369;52.840;7.082;2022-11-30T10:00:38;29.08;;;18.92;;
52456;SDS011;38369;52.840;7.082;2022-11-30T10:03:04;29.98;;;18.02;;
52456;SDS011;38369;52.840;7.082;2022-11-30T10:05:42;26.48;;;17.65;;
52456;SDS011;38369;52.840;7.082;2022-11-30T10:10:51;26.17;;;16.65;;
52456;SDS011;38369;52.840;7.082;2022-11-30T10:13:33;27.80;;;17.85;;
52456;SDS011;38369;52.840;7.082;2022-11-30T10:21:20;28.85;;;18.75;;
52456;SDS011;38369;52.840;7.082;2022-11-30T10:24:12;30.20;;;18.85;;
52456;SDS011;38369;52.840;7.082;2022-11-30T10:26:41;29.17;;;18.77;;
52456;SDS011;38369;52.840;7.082;2022-11-30T10:31:42;28.95;;;18.38;;
52456;SDS011;38369;52.840;7.082;2022-11-30T10:34:22;33.20;;;20.48;;
52456;SDS011;38369;52.840;7.082;2022-11-30T10:37:07;33.30;;;20.40;;
52456;SDS011;38369;52.840;7.082;2022-11-30T10:39:45;37.63;;;21.02;;
52456;SDS011;38369;52.840;7.082;2022-11-30T10:42:15;39.70;;;22.55;;
52456;SDS011;38369;52.840;7.082;2022-11-30T10:44:44;34.83;;;20.13;;
52456;SDS011;38369;52.840;7.082;2022-11-30T10:49:36;31.05;;;21.90;;
52456;SDS011;38369;52.840;7.082;2022-11-30T10:52:04;29.40;;;20.08;;
52456;SDS011;38369;52.840;7.082;2022-11-30T10:54:32;29.65;;;19.23;;
52456;SDS011;38369;52.840;7.082;2022-11-30T10:57:00;29.55;;;20.00;;
52456;SDS011;38369;52.840;7.082;2022-11-30T11:01:56;35.08;;;21.15;;
52456;SDS011;38369;52.840;7.082;2022-11-30T11:04:23;34.17;;;21.30;;
52456;SDS011;38369;52.840;7.082;2022-11-30T11:06:57;31.83;;;19.75;;
52456;SDS011;38369;52.840;7.082;2022-11-30T11:12:08;35.85;;;22.23;;
52456;SDS011;38369;52.840;7.082;2022-11-30T11:14:38;34.25;;;21.05;;
52456;SDS011;38369;52.840;7.082;2022-11-30T11:17:16;38.97;;;23.98;;
52456;SDS011;38369;52.840;7.082;2022-11-30T11:19:46;38.15;;;23.00;;
52456;SDS011;38369;52.840;7.082;2022-11-30T11:22:16;33.30;;;21.63;;
52456;SDS011;38369;52.840;7.082;2022-11-30T11:24:44;38.58;;;22.17;;
52456;SDS011;38369;52.840;7.082;2022-11-30T11:27:31;41.05;;;23.15;;
52456;SDS011;38369;52.840;7.082;2022-11-30T11:32:26;43.17;;;25.52;;
52456;SDS011;38369;52.840;7.082;2022-11-30T11:34:52;39.85;;;22.90;;
52456;SDS011;38369;52.840;7.082;2022-11-30T11:37:23;41.20;;;23.30;;
52456;SDS011;38369;52.840;7.082;2022-11-30T11:39:57;41.35;;;21.98;;
52456;SDS011;38369;52.840;7.082;2022-11-30T11:42:23;37.50;;;22.38;;
52456;SDS011;38369;52.840;7.082;2022-11-30T11:44:51;38.33;;;22.65;;
52456;SDS011;38369;52.840;7.082;2022-11-30T11:47:22;39.97;;;22.77;;
52456;SDS011;38369;52.840;7.082;2022-11-30T11:49:49;46.60;;;24.88;;
52456;SDS011;38369;52.840;7.082;2022-11-30T11:52:15;52.80;;;28.55;;
52456;SDS011;38369;52.840;7.082;2022-11-30T11:54:49;56.03;;;29.35;;
52456;SDS011;38369;52.840;7.082;2022-11-30T11:57:16;51.92;;;27.13;;
52456;SDS011;38369;52.840;7.082;2022-11-30T12:04:55;55.67;;;29.52;;
52456;SDS011;38369;52.840;7.082;2022-11-30T12:07:24;58.88;;;29.55;;
52456;SDS011;38369;52.840;7.082;2022-11-30T12:12:27;56.85;;;30.23;;
52456;SDS011;38369;52.840;7.082;2022-11-30T12:14:54;54.58;;;29.17;;
52456;SDS011;38369;52.840;7.082;2022-11-30T12:25:44;61.17;;;31.00;;
52456;SDS011;38369;52.840;7.082;2022-11-30T12:28:17;61.25;;;31.45;;
52456;SDS011;38369;52.840;7.082;2022-11-30T12:31:02;59.80;;;31.70;;
52456;SDS011;38369;52.840;7.082;2022-11-30T12:38:34;69.43;;;33.03;;
52456;SDS011;38369;52.840;7.082;2022-11-30T12:41:14;66.28;;;33.60;;
52456;SDS011;38369;52.840;7.082;2022-11-30T12:46:11;76.97;;;36.60;;
52456;SDS011;38369;52.840;7.082;2022-11-30T13:04:25;71.80;;;33.90;;
52456;SDS011;38369;52.840;7.082;2022-11-30T13:06:59;72.40;;;34.92;;
52456;SDS011;38369;52.840;7.082;2022-11-30T13:09:32;68.35;;;34.92;;
52456;SDS011;38369;52.840;7.082;2022-11-30T13:12:12;72.70;;;36.65;;
52456;SDS011;38369;52.840;7.082;2022-11-30T13:14:41;68.55;;;35.17;;
52456;SDS011;38369;52.840;7.082;2022-11-30T13:17:12;77.65;;;36.17;;
52456;SDS011;38369;52.840;7.082;2022-11-30T13:22:14;68.60;;;34.42;;
52456;SDS011;38369;52.840;7.082;2022-11-30T13:24:44;77.00;;;36.45;;
52456;SDS011;38369;52.840;7.082;2022-11-30T13:27:27;78.60;;;34.90;;
52456;SDS011;38369;52.840;7.082;2022-11-30T13:32:39;75.13;;;34.60;;
52456;SDS011;38369;52.840;7.082;2022-11-30T13:35:49;70.75;;;34.47;;
52456;SDS011;38369;52.840;7.082;2022-11-30T13:38:12;78.35;;;35.83;;
52456;SDS011;38369;52.840;7.082;2022-11-30T13:40:40;75.78;;;36.20;;
52456;SDS011;38369;52.840;7.082;2022-11-30T13:43:14;85.82;;;38.08;;
52456;SDS011;38369;52.840;7.082;2022-11-30T13:45:40;86.68;;;37.95;;
52456;SDS011;38369;52.840;7.082;2022-11-30T13:50:51;91.07;;;38.67;;
52456;SDS011;38369;52.840;7.082;2022-11-30T13:53:22;93.28;;;41.97;;
52456;SDS011;38369;52.840;7.082;2022-11-30T13:55:52;82.63;;;39.08;;
52456;SDS011;38369;52.840;7.082;2022-11-30T13:58:20;82.32;;;38.15;;
52456;SDS011;38369;52.840;7.082;2022-11-30T14:05:45;90.28;;;36.58;;
52456;SDS011;38369;52.840;7.082;2022-11-30T14:08:15;92.68;;;38.72;;
52456;SDS011;38369;52.840;7.082;2022-11-30T14:10:48;87.28;;;38.22;;
52456;SDS011;38369;52.840;7.082;2022-11-30T14:20:43;84.38;;;39.72;;
52456;SDS011;38369;52.840;7.082;2022-11-30T14:23:29;93.28;;;38.38;;
52456;SDS011;38369;52.840;7.082;2022-11-30T14:25:58;91.95;;;41.72;;
52456;SDS011;38369;52.840;7.082;2022-11-30T14:28:29;87.90;;;39.53;;
52456;SDS011;38369;52.840;7.082;2022-11-30T14:30:57;90.20;;;40.75;;
52456;SDS011;38369;52.840;7.082;2022-11-30T14:33:26;95.05;;;40.53;;
52456;SDS011;38369;52.840;7.082;2022-11-30T14:35:56;90.13;;;38.47;;
52456;SDS011;38369;52.840;7.082;2022-11-30T14:38:26;95.90;;;41.28;;
52456;SDS011;38369;52.840;7.082;2022-11-30T14:40:56;92.65;;;41.00;;
52456;SDS011;38369;52.840;7.082;2022-11-30T14:43:23;97.32;;;40.80;;
52456;SDS011;38369;52.840;7.082;2022-11-30T14:45:59;108.95;;;42.38;;
52456;SDS011;38369;52.840;7.082;2022-11-30T14:48:25;110.28;;;45.42;;
52456;SDS011;38369;52.840;7.082;2022-11-30T14:50:53;114.90;;;43.13;;
52456;SDS011;38369;52.840;7.082;2022-11-30T14:53:31;102.88;;;41.47;;
52456;SDS011;38369;52.840;7.082;2022-11-30T14:56:01;106.68;;;44.15;;
52456;SDS011;38369;52.840;7.082;2022-11-30T15:00:56;97.53;;;41.97;;
52456;SDS011;38369;52.840;7.082;2022-11-30T15:03:26;98.30;;;39.97;;
52456;SDS011;38369;52.840;7.082;2022-11-30T15:05:57;95.10;;;40.05;;
52456;SDS011;38369;52.840;7.082;2022-11-30T15:08:24;91.93;;;40.45;;
52456;SDS011;38369;52.840;7.082;2022-11-30T15:10:51;86.25;;;38.10;;
52456;SDS011;38369;52.840;7.082;2022-11-30T15:13:18;85.13;;;37.45;;
52456;SDS011;38369;52.840;7.082;2022-11-30T15:15:54;79.10;;;39.15;;
52456;SDS011;38369;52.840;7.082;2022-11-30T15:18:21;89.10;;;38.55;;
52456;SDS011;38369;52.840;7.082;2022-11-30T15:21:01;86.03;;;37.10;;
52456;SDS011;38369;52.840;7.082;2022-11-30T15:23:28;83.32;;;36.45;;
52456;SDS011;38369;52.840;7.082;2022-11-30T15:25:58;94.88;;;41.75;;
52456;SDS011;38369;52.840;7.082;2022-11-30T15:28:28;98.10;;;41.45;;
52456;SDS011;38369;52.840;7.082;2022-11-30T15:30:56;96.05;;;42.45;;
52456;SDS011;38369;52.840;7.082;2022-11-30T15:33:24;102.97;;;42.47;;
52456;SDS011;38369;52.840;7.082;2022-11-30T15:35:53;97.20;;;43.97;;
52456;SDS011;38369;52.840;7.082;2022-11-30T15:38:20;94.95;;;40.92;;
52456;SDS011;38369;52.840;7.082;2022-11-30T15:40:47;92.10;;;40.50;;
52456;SDS011;38369;52.840;7.082;2022-11-30T15:43:25;93.37;;;40.47;;
52456;SDS011;38369;52.840;7.082;2022-11-30T15:45:52;92.88;;;40.85;;
52456;SDS011;38369;52.840;7.082;2022-11-30T15:48:32;94.15;;;41.35;;
52456;SDS011;38369;52.840;7.082;2022-11-30T15:50:58;106.23;;;44.10;;
52456;SDS011;38369;52.840;7.082;2022-11-30T15:55:55;99.90;;;40.22;;
52456;SDS011;38369;52.840;7.082;2022-11-30T16:03:28;103.25;;;41.45;;
52456;SDS011;38369;52.840;7.082;2022-11-30T16:05:55;97.13;;;42.15;;
52456;SDS011;38369;52.840;7.082;2022-11-30T16:08:22;101.85;;;43.28;;
52456;SDS011;38369;52.840;7.082;2022-11-30T16:10:48;95.80;;;39.85;;
52456;SDS011;38369;52.840;7.082;2022-11-30T16:13:14;97.15;;;42.80;;
52456;SDS011;38369;52.840;7.082;2022-11-30T16:15:44;95.50;;;42.92;;
52456;SDS011;38369;52.840;7.082;2022-11-30T16:18:15;97.38;;;41.55;;
52456;SDS011;38369;52.840;7.082;2022-11-30T16:20:43;104.68;;;45.05;;
52456;SDS011;38369;52.840;7.082;2022-11-30T16:23:13;105.18;;;41.20;;